createdAt,value
2019-02-14T00:00:57.468Z,73.10
2019-02-14T00:03:26.957Z,72.97
2019-02-14T00:05:56.271Z,73.00
2019-02-14T00:08:25.948Z,73.32
2019-02-14T00:10:55.221Z,73.36
2019-02-14T00:13:24.516Z,73.34
2019-02-14T00:15:54.073Z,72.91
2019-02-14T00:18:23.404Z,72.72
2019-02-14T00:20:52.733Z,73.07
2019-02-14T00:23:22.039Z,72.65
2019-02-14T00:25:51.684Z,72.70
2019-02-14T00:28:20.957Z,72.97
2019-02-14T00:30:50.200Z,72.71
2019-02-14T00:33:19.477Z,72.56
2019-02-14T00:35:48.766Z,72.61
2019-02-14T00:38:18.014Z,72.95
2019-02-14T00:40:47.885Z,72.62
2019-02-14T00:43:17.107Z,72.99
2019-02-14T00:45:47.473Z,72.62
2019-02-14T00:48:16.863Z,72.40
2019-02-14T00:50:46.118Z,72.57
2019-02-14T00:53:15.327Z,72.10
2019-02-14T00:55:44.595Z,72.06
2019-02-14T00:58:13.851Z,72.03
2019-02-14T01:00:43.179Z,71.82
2019-02-14T01:03:12.544Z,71.46
2019-02-14T01:05:41.799Z,71.77
2019-02-14T01:08:11.048Z,71.61
2019-02-14T01:10:40.378Z,71.91
2019-02-14T01:13:09.629Z,71.78
2019-02-14T01:15:39.097Z,71.75
2019-02-14T01:18:08.402Z,71.95
2019-02-14T01:20:37.650Z,72.27
2019-02-14T01:23:06.881Z,71.36
2019-02-14T01:25:36.123Z,71.60
2019-02-14T01:28:05.418Z,71.77
2019-02-14T01:30:34.773Z,72.08
2019-02-14T01:33:03.998Z,72.01
2019-02-14T01:35:41.665Z,71.71
2019-02-14T01:38:04.213Z,71.47
2019-02-14T01:40:33.539Z,71.66
2019-02-14T01:43:02.847Z,71.59
2019-02-14T01:45:32.176Z,71.27
2019-02-14T01:48:01.393Z,71.18
2019-02-14T01:50:30.656Z,71.44
2019-02-14T01:52:59.915Z,71.58
2019-02-14T01:55:29.248Z,70.99
2019-02-14T01:58:16.622Z,71.00
2019-02-14T02:00:45.908Z,71.04
2019-02-14T02:03:15.170Z,71.03
2019-02-14T02:05:50.633Z,71.41
2019-02-14T02:08:15.384Z,71.15
2019-02-14T02:10:44.710Z,71.34
2019-02-14T02:13:14.053Z,71.32
2019-02-14T02:15:43.351Z,71.51
2019-02-14T02:18:12.924Z,71.46
2019-02-14T02:20:42.196Z,71.64
2019-02-14T02:23:11.445Z,71.73
2019-02-14T02:25:40.993Z,71.62
2019-02-14T02:28:10.299Z,71.88
2019-02-14T02:30:39.524Z,71.95
2019-02-14T02:33:08.798Z,72.08
2019-02-14T02:35:38.030Z,71.69
2019-02-14T02:38:07.335Z,71.79
2019-02-14T02:40:36.567Z,71.94
2019-02-14T02:43:05.850Z,71.63
2019-02-14T02:45:35.103Z,71.19
2019-02-14T02:48:10.257Z,71.36
2019-02-14T02:50:39.559Z,71.40
2019-02-14T02:53:27.370Z,71.69
2019-02-14T02:55:56.683Z,71.79
2019-02-14T02:58:25.988Z,71.67
2019-02-14T03:00:55.233Z,71.21
2019-02-14T03:03:24.487Z,71.61
2019-02-14T03:05:53.719Z,71.63
2019-02-14T03:08:22.951Z,71.14
2019-02-14T03:10:54.070Z,71.15
2019-02-14T03:13:23.225Z,71.07
2019-02-14T03:15:52.433Z,71.59
2019-02-14T03:18:21.700Z,71.13
2019-02-14T03:20:50.942Z,71.12
2019-02-14T03:23:20.190Z,71.08
2019-02-14T03:25:49.466Z,71.45
2019-02-14T03:28:18.710Z,71.68
2019-02-14T03:30:48.101Z,71.34
2019-02-14T03:33:17.370Z,71.59
2019-02-14T03:35:46.650Z,71.42
2019-02-14T03:38:15.924Z,71.53
2019-02-14T03:40:45.189Z,71.18
2019-02-14T03:43:14.511Z,71.28
2019-02-14T03:45:43.762Z,71.51
2019-02-14T03:48:13.016Z,71.75
2019-02-14T03:54:05.498Z,71.94
2019-02-14T03:56:34.712Z,71.87
2019-02-14T04:02:32.035Z,72.10
2019-02-14T04:05:01.272Z,72.33
2019-02-14T04:07:30.666Z,71.93
2019-02-14T04:09:59.900Z,72.34
2019-02-14T04:12:29.179Z,72.73
2019-02-14T04:14:58.414Z,72.73
2019-02-14T04:17:27.681Z,72.17
2019-02-14T04:19:56.926Z,71.74
2019-02-14T04:22:26.197Z,71.91
2019-02-14T04:24:55.482Z,71.58
2019-02-14T04:27:24.772Z,71.65
2019-02-14T04:29:53.964Z,71.52
2019-02-14T04:32:23.200Z,71.05
2019-02-14T04:34:52.462Z,71.31
2019-02-14T04:37:21.736Z,71.23
2019-02-14T04:39:50.966Z,71.30
2019-02-14T04:42:20.206Z,71.30
2019-02-14T04:44:49.467Z,71.19
2019-02-14T04:47:18.904Z,71.49
2019-02-14T04:49:48.154Z,71.33
2019-02-14T04:52:17.375Z,71.33
2019-02-14T04:54:46.621Z,71.78
2019-02-14T04:57:15.826Z,71.38
2019-02-14T04:59:45.063Z,71.66
2019-02-14T05:02:14.281Z,71.59
2019-02-14T05:04:43.495Z,71.49
2019-02-14T05:07:12.783Z,70.80
2019-02-14T05:09:42.051Z,71.35
2019-02-14T05:12:11.289Z,71.04
2019-02-14T05:14:40.529Z,71.05
2019-02-14T05:17:09.720Z,70.76
2019-02-14T05:19:38.943Z,71.19
2019-02-14T05:22:08.164Z,70.67
2019-02-14T05:24:37.408Z,70.99
2019-02-14T05:27:06.628Z,70.53
2019-02-14T05:29:35.868Z,70.54
2019-02-14T05:32:05.078Z,70.20
2019-02-14T05:34:34.302Z,70.23
2019-02-14T05:37:03.513Z,70.02
2019-02-14T05:39:32.771Z,70.35
2019-02-14T05:42:02.019Z,70.54
2019-02-14T05:45:16.289Z,70.37
2019-02-14T05:47:45.562Z,70.59
2019-02-14T05:50:14.866Z,70.46
2019-02-14T05:52:44.063Z,70.83
2019-02-14T05:55:13.491Z,70.79
2019-02-14T05:57:42.763Z,70.55
2019-02-14T06:00:13.213Z,70.68
2019-02-14T06:02:42.449Z,70.87
2019-02-14T06:05:11.701Z,70.94
2019-02-14T06:11:21.988Z,71.11
2019-02-14T06:13:51.228Z,70.94
2019-02-14T06:16:20.468Z,71.04
2019-02-14T06:18:49.765Z,70.53
2019-02-14T06:21:19.076Z,70.88
2019-02-14T06:23:48.372Z,70.56
2019-02-14T06:26:17.612Z,70.79
2019-02-14T06:28:46.835Z,70.35
2019-02-14T06:31:16.089Z,70.00
2019-02-14T06:33:45.335Z,69.68
2019-02-14T06:36:14.575Z,69.82
2019-02-14T06:38:43.837Z,69.94
2019-02-14T06:41:13.055Z,69.89
2019-02-14T06:43:42.367Z,70.09
2019-02-14T06:46:11.624Z,69.95
2019-02-14T06:48:40.908Z,69.93
2019-02-14T06:51:10.341Z,69.42
2019-02-14T06:53:39.564Z,68.99
2019-02-14T06:56:08.954Z,68.88
2019-02-14T06:58:38.239Z,69.33
2019-02-14T07:01:07.498Z,69.04
2019-02-14T07:03:36.751Z,68.98
2019-02-14T07:06:05.977Z,68.58
2019-02-14T07:08:35.208Z,68.93
2019-02-14T07:11:04.464Z,68.96
2019-02-14T07:13:33.711Z,68.63
2019-02-14T07:16:44.890Z,68.80
2019-02-14T07:19:14.148Z,68.83
2019-02-14T07:21:43.414Z,68.80
2019-02-14T07:24:12.779Z,69.11
2019-02-14T07:26:42.011Z,68.81
2019-02-14T07:29:11.224Z,68.96
2019-02-14T07:31:41.431Z,69.01
2019-02-14T07:34:10.675Z,68.82
2019-02-14T07:36:39.897Z,68.44
2019-02-14T07:39:11.047Z,68.60
2019-02-14T07:41:40.458Z,68.63
2019-02-14T07:44:09.697Z,68.84
2019-02-14T07:46:38.937Z,68.98
2019-02-14T07:49:08.188Z,69.33
2019-02-14T07:51:37.429Z,68.76
2019-02-14T07:54:06.655Z,69.10
2019-02-14T07:56:35.899Z,69.51
2019-02-14T07:59:05.463Z,70.08
2019-02-14T08:01:35.440Z,69.06
2019-02-14T08:04:04.732Z,68.95
2019-02-14T08:06:34.049Z,68.67
2019-02-14T08:09:03.638Z,68.59
2019-02-14T08:11:32.910Z,67.91
2019-02-14T08:14:02.142Z,67.94
2019-02-14T08:16:31.392Z,68.05
2019-02-14T08:19:00.623Z,67.58
2019-02-14T08:21:29.859Z,67.59
2019-02-14T08:23:59.114Z,67.39
2019-02-14T08:26:28.367Z,67.56
2019-02-14T08:28:57.582Z,67.72
2019-02-14T08:31:26.822Z,67.54
2019-02-14T08:33:56.089Z,67.25
2019-02-14T08:36:25.306Z,67.64
2019-02-14T08:38:54.514Z,67.72
2019-02-14T08:41:23.759Z,67.86
2019-02-14T08:43:53.015Z,67.63
2019-02-14T08:46:22.273Z,67.32
2019-02-14T08:48:51.531Z,67.31
2019-02-14T08:51:20.742Z,67.28
2019-02-14T08:53:50.001Z,67.13
2019-02-14T08:56:19.264Z,67.62
2019-02-14T08:58:48.486Z,67.31
2019-02-14T09:01:17.789Z,66.81
2019-02-14T09:03:47.001Z,66.82
2019-02-14T09:06:16.255Z,67.05
2019-02-14T09:08:45.523Z,66.85
2019-02-14T09:11:14.730Z,66.70
2019-02-14T09:13:43.961Z,66.67
2019-02-14T09:16:13.262Z,66.83
2019-02-14T09:18:42.475Z,67.00
2019-02-14T09:21:12.898Z,66.38
2019-02-14T09:23:42.339Z,66.57
2019-02-14T09:27:05.141Z,66.64
2019-02-14T09:29:34.344Z,66.60
2019-02-14T09:32:03.606Z,66.71
2019-02-14T09:34:32.863Z,66.60
2019-02-14T09:37:02.081Z,66.99
2019-02-14T09:39:31.305Z,66.65
2019-02-14T09:42:02.577Z,66.14
2019-02-14T09:44:32.126Z,65.90
2019-02-14T09:47:01.703Z,65.94
2019-02-14T09:49:31.027Z,65.93
2019-02-14T09:52:02.737Z,65.50
2019-02-14T09:54:32.972Z,65.10
2019-02-14T09:57:03.695Z,64.52
2019-02-14T09:59:35.549Z,63.32
2019-02-14T10:02:08.862Z,63.55
2019-02-14T10:04:40.959Z,63.70
2019-02-14T10:07:10.284Z,63.14
2019-02-14T10:09:40.436Z,62.53
2019-02-14T10:12:10.360Z,62.79
2019-02-14T10:14:39.584Z,62.09
2019-02-14T10:17:08.840Z,61.70
2019-02-14T10:19:38.093Z,60.97
2019-02-14T10:22:07.327Z,60.91
2019-02-14T10:24:36.568Z,61.00
2019-02-14T10:27:05.848Z,60.97
2019-02-14T10:29:35.139Z,60.13
2019-02-14T10:32:04.675Z,60.08
2019-02-14T10:34:33.942Z,59.66
2019-02-14T10:37:03.181Z,59.26
2019-02-14T10:39:32.407Z,59.03
2019-02-14T10:42:01.681Z,58.49
2019-02-14T10:44:31.107Z,58.51
2019-02-14T10:47:00.329Z,57.96
2019-02-14T10:49:29.627Z,58.12
2019-02-14T10:51:58.864Z,57.96
2019-02-14T10:54:28.098Z,57.93
2019-02-14T10:56:57.399Z,57.88
2019-02-14T10:59:26.633Z,57.41
2019-02-14T11:01:55.913Z,57.68
2019-02-14T11:04:25.195Z,56.73
2019-02-14T11:06:54.378Z,56.63
2019-02-14T11:09:23.665Z,56.57
2019-02-14T11:11:52.897Z,56.40
2019-02-14T11:14:29.034Z,55.50
2019-02-14T11:16:53.099Z,55.02
2019-02-14T11:19:22.341Z,54.87
2019-02-14T11:21:51.666Z,54.75
2019-02-14T11:24:20.936Z,53.92
2019-02-14T11:26:50.165Z,54.08
2019-02-14T11:29:19.428Z,53.20
2019-02-14T11:31:48.691Z,52.23
2019-02-14T11:34:17.959Z,51.79
2019-02-14T11:36:47.222Z,52.57
2019-02-14T11:39:16.469Z,52.21
2019-02-14T11:41:45.726Z,52.63
2019-02-14T11:44:14.974Z,52.07
2019-02-14T11:46:51.247Z,51.59
2019-02-14T11:49:15.179Z,51.23
2019-02-14T11:51:44.454Z,50.55
2019-02-14T11:54:14.229Z,50.07
2019-02-14T11:56:43.724Z,50.78
2019-02-14T11:59:13.028Z,51.11
2019-02-14T12:01:42.286Z,51.41
2019-02-14T12:04:11.572Z,51.43
2019-02-14T12:06:40.878Z,50.25
2019-02-14T12:09:10.124Z,51.14
2019-02-14T12:11:39.375Z,51.03
2019-02-14T12:14:08.642Z,49.68
2019-02-14T12:16:37.876Z,49.31
2019-02-14T12:19:07.158Z,49.56
2019-02-14T12:21:36.395Z,49.71
2019-02-14T12:24:05.694Z,49.55
2019-02-14T12:26:34.910Z,49.60
2019-02-14T12:29:04.172Z,49.63
2019-02-14T12:31:33.406Z,49.23
2019-02-14T12:34:02.687Z,48.91
2019-02-14T12:36:31.947Z,46.64
2019-02-14T12:39:08.646Z,47.17
2019-02-14T12:41:32.167Z,46.48
2019-02-14T12:44:01.420Z,46.18
2019-02-14T12:46:30.684Z,46.43
2019-02-14T12:48:59.934Z,46.14
2019-02-14T12:51:29.152Z,46.82
2019-02-14T12:53:58.437Z,46.62
2019-02-14T12:56:27.780Z,46.62
2019-02-14T12:58:56.995Z,45.86
2019-02-14T13:01:26.267Z,45.45
2019-02-14T13:03:55.535Z,45.78
2019-02-14T13:06:24.796Z,45.30
2019-02-14T13:08:54.078Z,45.24
2019-02-14T13:11:26.595Z,45.60
2019-02-14T13:13:55.828Z,45.23
2019-02-14T13:16:25.061Z,45.54
2019-02-14T13:18:54.321Z,45.83
2019-02-14T13:21:23.560Z,44.79
2019-02-14T13:23:52.842Z,45.20
2019-02-14T13:26:22.196Z,45.89
2019-02-14T13:28:51.439Z,46.51
2019-02-14T13:31:20.665Z,46.65
2019-02-14T13:33:49.935Z,46.68
2019-02-14T13:36:19.193Z,47.22
2019-02-14T13:38:48.464Z,47.73
2019-02-14T13:41:17.718Z,47.62
2019-02-14T13:43:46.976Z,47.53
2019-02-14T13:46:16.236Z,48.00
2019-02-14T13:48:45.492Z,48.48
2019-02-14T13:54:42.747Z,47.99
2019-02-14T13:57:12.042Z,47.86
2019-02-14T13:59:41.302Z,47.89
2019-02-14T14:02:10.536Z,47.91
2019-02-14T14:04:39.796Z,48.20
2019-02-14T14:07:09.130Z,47.87
2019-02-14T14:09:39.066Z,48.32
2019-02-14T14:12:11.279Z,47.41
2019-02-14T14:14:40.531Z,47.48
2019-02-14T14:17:09.762Z,48.03
2019-02-14T14:19:39.547Z,47.85
2019-02-14T14:22:08.812Z,47.82
2019-02-14T14:24:38.140Z,47.55
2019-02-14T14:27:07.427Z,47.26
2019-02-14T14:29:36.697Z,47.78
2019-02-14T14:32:05.925Z,47.07
2019-02-14T14:34:42.622Z,47.54
2019-02-14T14:37:11.892Z,46.84
2019-02-14T14:39:47.590Z,47.41
2019-02-14T14:42:31.255Z,47.34
2019-02-14T14:45:00.647Z,47.47
2019-02-14T14:47:29.870Z,48.12
2019-02-14T14:49:59.133Z,48.22
2019-02-14T14:52:28.368Z,47.96
2019-02-14T14:55:18.630Z,47.70
2019-02-14T14:57:47.891Z,47.31
2019-02-14T15:00:17.176Z,47.37
2019-02-14T15:02:46.421Z,47.46
2019-02-14T15:09:20.950Z,47.81
2019-02-14T15:11:50.241Z,47.97
2019-02-14T15:14:19.462Z,47.83
2019-02-14T15:16:48.874Z,47.51
2019-02-14T15:19:18.199Z,47.50
2019-02-14T15:21:47.452Z,47.39
2019-02-14T15:24:16.864Z,47.55
2019-02-14T15:26:46.246Z,47.31
2019-02-14T15:29:15.629Z,47.44
2019-02-14T15:31:44.958Z,47.70
2019-02-14T15:34:14.274Z,47.50
2019-02-14T15:36:43.562Z,48.00
2019-02-14T15:39:12.834Z,47.84
2019-02-14T15:41:42.105Z,47.82
2019-02-14T15:44:11.349Z,47.75
2019-02-14T15:46:40.647Z,47.54
2019-02-14T15:49:37.222Z,47.95
2019-02-14T15:52:07.743Z,48.25
2019-02-14T15:54:37.109Z,47.73
2019-02-14T15:57:06.351Z,47.67
2019-02-14T15:59:37.951Z,47.87
2019-02-14T16:02:08.513Z,48.20
2019-02-14T16:04:37.954Z,48.62
2019-02-14T16:07:07.389Z,48.65
2019-02-14T16:09:38.849Z,48.68
2019-02-14T16:12:07.720Z,48.23
2019-02-14T16:14:37.018Z,48.52
2019-02-14T16:17:08.049Z,48.81
2019-02-14T16:19:37.369Z,49.29
2019-02-14T16:22:06.611Z,48.36
2019-02-14T16:24:35.869Z,48.61
2019-02-14T16:27:05.088Z,49.03
2019-02-14T16:29:34.375Z,49.48
2019-02-14T16:32:03.625Z,48.72
2019-02-14T16:34:32.937Z,49.18
2019-02-14T16:37:02.382Z,48.83
2019-02-14T16:39:31.643Z,49.11
2019-02-14T16:42:00.949Z,49.98
2019-02-14T16:44:30.205Z,50.06
2019-02-14T16:46:59.717Z,49.53
2019-02-14T16:49:29.049Z,49.69
2019-02-14T16:51:58.335Z,49.22
2019-02-14T16:54:27.761Z,48.93
2019-02-14T16:56:57.102Z,49.05
2019-02-14T16:59:26.360Z,49.49
2019-02-14T17:02:07.590Z,50.18
2019-02-14T17:04:36.866Z,49.02
2019-02-14T17:07:06.154Z,48.63
2019-02-14T17:09:35.402Z,49.06
2019-02-14T17:12:04.678Z,49.18
2019-02-14T17:14:34.023Z,49.08
2019-02-14T17:17:03.291Z,48.91
2019-02-14T17:19:32.722Z,49.02
2019-02-14T17:22:02.000Z,48.57
2019-02-14T17:24:31.277Z,48.59
2019-02-14T17:27:00.556Z,49.00
2019-02-14T17:29:29.898Z,49.17
2019-02-14T17:31:59.178Z,49.14
2019-02-14T17:34:28.457Z,49.54
2019-02-14T17:36:57.726Z,49.36
2019-02-14T17:40:05.867Z,49.99
2019-02-14T17:42:35.107Z,49.73
2019-02-14T17:45:04.543Z,50.52
2019-02-14T17:47:33.794Z,50.64
2019-02-14T17:50:03.165Z,49.50
2019-02-14T17:52:33.036Z,49.22
2019-02-14T17:55:53.667Z,49.45
2019-02-14T17:58:22.957Z,49.63
2019-02-14T18:00:57.450Z,49.44
2019-02-14T18:03:26.328Z,49.51
2019-02-14T18:05:55.719Z,49.47
2019-02-14T18:08:26.071Z,49.31
2019-02-14T18:10:55.550Z,49.62
2019-02-14T18:13:24.911Z,49.31
2019-02-14T18:15:55.338Z,49.74
2019-02-14T18:18:25.023Z,49.73
2019-02-14T18:21:00.443Z,49.84
2019-02-14T18:23:32.014Z,50.01
2019-02-14T18:26:01.445Z,49.98
2019-02-14T18:28:33.558Z,50.22
2019-02-14T18:31:03.610Z,50.46
2019-02-14T18:33:35.803Z,50.61
2019-02-14T18:36:05.226Z,50.95
2019-02-14T18:38:34.651Z,50.66
2019-02-14T18:41:04.549Z,50.72
2019-02-14T18:43:34.119Z,50.52
2019-02-14T18:46:05.442Z,50.50
2019-02-14T18:48:34.739Z,50.87
2019-02-14T18:51:06.136Z,50.68
2019-02-14T18:53:35.525Z,50.74
2019-02-14T18:56:23.287Z,50.71
2019-02-14T18:58:52.665Z,50.83
2019-02-14T19:01:21.963Z,50.44
2019-02-14T19:03:51.343Z,50.48
2019-02-14T19:06:20.819Z,50.18
2019-02-14T19:08:51.424Z,49.78
2019-02-14T19:13:49.444Z,49.83
2019-02-14T19:16:18.868Z,50.07
2019-02-14T19:18:48.207Z,50.29
2019-02-14T19:21:17.519Z,50.10
2019-02-14T19:23:46.969Z,50.24
2019-02-14T19:26:17.479Z,50.12
2019-02-14T19:28:46.832Z,49.96
2019-02-14T19:32:05.644Z,50.09
2019-02-14T19:34:35.321Z,50.32
2019-02-14T19:37:04.647Z,50.73
2019-02-14T19:39:36.712Z,50.75
2019-02-14T19:42:05.608Z,50.83
2019-02-14T19:45:14.173Z,51.25
2019-02-14T19:47:43.573Z,50.87
2019-02-14T19:50:13.001Z,50.97
2019-02-14T19:52:42.708Z,50.92
2019-02-14T19:55:12.620Z,50.88
2019-02-14T19:57:45.150Z,51.15
2019-02-14T20:00:14.595Z,51.55
2019-02-14T20:06:15.879Z,51.29
2019-02-14T20:08:45.829Z,51.30
2019-02-14T20:14:56.569Z,51.50
2019-02-14T20:17:26.357Z,51.50
2019-02-14T20:20:02.017Z,51.54
2019-02-14T20:22:31.790Z,51.72
2019-02-14T20:25:04.351Z,51.70
2019-02-14T20:27:33.767Z,51.66
2019-02-14T20:30:03.241Z,51.80
2019-02-14T20:32:32.889Z,51.92
2019-02-14T20:35:06.457Z,51.85
2019-02-14T20:37:35.813Z,52.11
2019-02-14T20:40:06.397Z,52.41
2019-02-14T20:42:35.725Z,52.51
2019-02-14T20:45:05.746Z,52.84
2019-02-14T20:47:35.483Z,53.13
2019-02-14T20:50:05.102Z,53.10
2019-02-14T20:52:34.670Z,52.82
2019-02-14T20:58:33.337Z,53.29
2019-02-14T21:01:04.355Z,53.46
2019-02-14T21:03:33.781Z,53.63
2019-02-14T21:06:03.792Z,53.84
2019-02-14T21:08:33.979Z,53.91
2019-02-14T21:11:03.799Z,53.91
2019-02-14T21:13:35.299Z,53.62
2019-02-14T21:16:05.982Z,53.18
2019-02-14T21:18:35.784Z,53.36
2019-02-14T21:21:05.728Z,52.79
2019-02-14T21:23:35.081Z,52.93
2019-02-14T21:26:05.006Z,52.67
2019-02-14T21:28:34.634Z,52.48
2019-02-14T21:31:04.206Z,52.78
2019-02-14T21:33:33.556Z,52.96
2019-02-14T21:36:03.075Z,52.92
2019-02-14T21:38:32.839Z,52.91
2019-02-14T21:41:02.693Z,52.84
2019-02-14T21:43:33.075Z,52.74
2019-02-14T21:46:03.245Z,52.70
2019-02-14T21:48:33.393Z,52.30
2019-02-14T21:51:03.902Z,52.35
2019-02-14T21:53:33.290Z,52.11
2019-02-14T21:56:02.828Z,52.15
2019-02-14T21:58:32.344Z,51.56
2019-02-14T22:01:01.785Z,51.30
2019-02-14T22:03:31.182Z,51.52
2019-02-14T22:06:00.683Z,50.92
2019-02-14T22:08:30.122Z,51.01
2019-02-14T22:10:59.484Z,50.99
2019-02-14T22:13:28.880Z,51.29
2019-02-14T22:15:58.416Z,51.33
2019-02-14T22:18:28.345Z,51.41
2019-02-14T22:20:57.962Z,51.45
2019-02-14T22:23:27.308Z,51.78
2019-02-14T22:25:57.467Z,52.15
2019-02-14T22:28:27.241Z,52.05
2019-02-14T22:30:56.588Z,52.41
2019-02-14T22:33:25.893Z,52.80
2019-02-14T22:35:55.195Z,52.64
2019-02-14T22:38:24.952Z,53.05
2019-02-14T22:40:54.875Z,53.22
2019-02-14T22:43:25.450Z,53.33
2019-02-14T22:45:55.374Z,53.41
2019-02-14T22:48:24.900Z,53.48
2019-02-14T22:50:55.016Z,53.47
2019-02-14T22:53:25.306Z,53.50
2019-02-14T22:55:54.694Z,53.30
2019-02-14T22:58:24.592Z,53.51
2019-02-14T23:00:59.731Z,53.70
2019-02-14T23:03:29.107Z,53.73
2019-02-14T23:06:00.741Z,53.71
2019-02-14T23:08:30.187Z,53.93
2019-02-14T23:10:59.514Z,54.13
2019-02-14T23:13:28.916Z,54.08
2019-02-14T23:15:58.356Z,54.23
2019-02-14T23:18:30.716Z,54.26
2019-02-14T23:21:00.501Z,54.40
2019-02-14T23:23:30.192Z,54.49
2019-02-14T23:25:59.568Z,54.51
2019-02-14T23:28:28.911Z,54.32
2019-02-14T23:30:58.121Z,54.83
2019-02-14T23:33:27.383Z,54.74
2019-02-14T23:35:57.046Z,54.31
2019-02-14T23:38:26.817Z,54.42
2019-02-14T23:40:58.508Z,54.25
2019-02-14T23:43:30.875Z,54.25
2019-02-14T23:46:03.082Z,54.46
2019-02-14T23:48:32.691Z,53.90
2019-02-14T23:51:03.560Z,54.09
2019-02-14T23:53:33.290Z,54.11
2019-02-14T23:56:02.689Z,54.16
2019-02-14T23:58:31.903Z,54.27
